sensor_id;sensor_type;location;lat;lon;timestamp;pressure;altitude;pressure_sealevel;temperature;humidity
41706;BME280;27385;51.096;17.190;2024-03-17T17:59:54;100858.36;;;5.69;60.06
41706;BME280;27385;51.096;17.190;2024-03-17T18:03:06;100853.61;;;5.61;60.07
41706;BME280;27385;51.096;17.190;2024-03-17T18:06:51;100853.00;;;5.58;59.86
41706;BME280;27385;51.096;17.190;2024-03-17T18:10:42;100855.98;;;5.55;59.84
41706;BME280;27385;51.096;17.190;2024-03-17T18:14:23;100862.95;;;5.51;60.14
41706;BME280;27385;51.096;17.190;2024-03-17T18:18:39;100863.60;;;5.47;60.46
41706;BME280;27385;51.096;17.190;2024-03-17T18:22:56;100863.52;;;5.43;60.76
41706;BME280;27385;51.096;17.190;2024-03-17T18:26:45;100866.24;;;5.42;61.13
41706;BME280;27385;51.096;17.190;2024-03-17T18:30:33;100864.58;;;5.38;61.14
41706;BME280;27385;51.096;17.190;2024-03-17T18:33:25;100862.59;;;5.32;61.26
41706;BME280;27385;51.096;17.190;2024-03-17T18:36:21;100864.08;;;5.29;61.42
41706;BME280;27385;51.096;17.190;2024-03-17T18:39:14;100868.23;;;5.27;61.71
41706;BME280;27385;51.096;17.190;2024-03-17T18:42:05;100868.85;;;5.24;61.74
41706;BME280;27385;51.096;17.190;2024-03-17T18:44:59;100868.66;;;5.18;61.80
41706;BME280;27385;51.096;17.190;2024-03-17T18:47:51;100877.22;;;5.13;61.99
41706;BME280;27385;51.096;17.190;2024-03-17T18:50:42;100877.90;;;5.11;62.00
41706;BME280;27385;51.096;17.190;2024-03-17T18:53:32;100877.52;;;5.06;62.13
41706;BME280;27385;51.096;17.190;2024-03-17T18:56:21;100872.98;;;5.00;62.17
41706;BME280;27385;51.096;17.190;2024-03-17T18:59:11;100875.39;;;4.94;62.31
41706;BME280;27385;51.096;17.190;2024-03-17T19:02:03;100872.13;;;4.90;62.55
41706;BME280;27385;51.096;17.190;2024-03-17T19:04:53;100870.23;;;4.88;62.77
41706;BME280;27385;51.096;17.190;2024-03-17T19:07:44;100869.35;;;4.87;62.65
41706;BME280;27385;51.096;17.190;2024-03-17T19:10:36;100872.88;;;4.85;62.64
41706;BME280;27385;51.096;17.190;2024-03-17T19:13:27;100872.04;;;4.80;62.64
41706;BME280;27385;51.096;17.190;2024-03-17T19:16:17;100877.44;;;4.78;62.86
41706;BME280;27385;51.096;17.190;2024-03-17T19:19:08;100876.48;;;4.75;62.89
41706;BME280;27385;51.096;17.190;2024-03-17T19:21:59;100876.19;;;4.69;63.05
41706;BME280;27385;51.096;17.190;2024-03-17T19:24:53;100874.71;;;4.68;63.13
41706;BME280;27385;51.096;17.190;2024-03-17T19:27:43;100873.77;;;4.63;63.04
41706;BME280;27385;51.096;17.190;2024-03-17T19:30:35;100870.33;;;4.57;63.17
41706;BME280;27385;51.096;17.190;2024-03-17T19:33:24;100870.80;;;4.53;63.34
41706;BME280;27385;51.096;17.190;2024-03-17T19:36:14;100867.11;;;4.52;63.59
41706;BME280;27385;51.096;17.190;2024-03-17T19:39:06;100871.69;;;4.48;63.52
41706;BME280;27385;51.096;17.190;2024-03-17T19:41:56;100877.75;;;4.45;63.55
41706;BME280;27385;51.096;17.190;2024-03-17T19:44:48;100879.61;;;4.42;63.73
41706;BME280;27385;51.096;17.190;2024-03-17T19:47:38;100877.65;;;4.42;64.07
41706;BME280;27385;51.096;17.190;2024-03-17T19:50:29;100878.84;;;4.40;63.81
41706;BME280;27385;51.096;17.190;2024-03-17T19:53:20;100879.94;;;4.37;63.89
41706;BME280;27385;51.096;17.190;2024-03-17T19:56:11;100881.88;;;4.35;64.00
41706;BME280;27385;51.096;17.190;2024-03-17T19:59:02;100884.35;;;4.33;63.99
41706;BME280;27385;51.096;17.190;2024-03-17T20:01:52;100881.58;;;4.34;63.96
41706;BME280;27385;51.096;17.190;2024-03-17T20:04:44;100881.80;;;4.34;64.17
41706;BME280;27385;51.096;17.190;2024-03-17T20:07:57;100877.43;;;4.35;64.37
41706;BME280;27385;51.096;17.190;2024-03-17T20:10:51;100878.62;;;4.36;64.36
41706;BME280;27385;51.096;17.190;2024-03-17T20:13:42;100877.55;;;4.34;64.36
41706;BME280;27385;51.096;17.190;2024-03-17T20:16:34;100877.89;;;4.33;64.41
41706;BME280;27385;51.096;17.190;2024-03-17T20:19:30;100871.34;;;4.28;64.44
41706;BME280;27385;51.096;17.190;2024-03-17T20:22:24;100874.89;;;4.27;64.70
41706;BME280;27385;51.096;17.190;2024-03-17T20:25:15;100875.75;;;4.28;64.73
41706;BME280;27385;51.096;17.190;2024-03-17T20:28:12;100876.94;;;4.28;64.81
41706;BME280;27385;51.096;17.190;2024-03-17T20:31:05;100873.19;;;4.30;64.79
41706;BME280;27385;51.096;17.190;2024-03-17T20:34:02;100868.89;;;4.28;64.74
41706;BME280;27385;51.096;17.190;2024-03-17T20:37:06;100867.05;;;4.28;64.88
41706;BME280;27385;51.096;17.190;2024-03-17T20:39:58;100867.55;;;4.27;64.90
41706;BME280;27385;51.096;17.190;2024-03-17T20:42:53;100870.63;;;4.28;65.01
41706;BME280;27385;51.096;17.190;2024-03-17T20:45:47;100876.06;;;4.29;65.27
41706;BME280;27385;51.096;17.190;2024-03-17T20:48:40;100877.35;;;4.27;65.38
41706;BME280;27385;51.096;17.190;2024-03-17T20:51:35;100876.96;;;4.22;65.20
41706;BME280;27385;51.096;17.190;2024-03-17T20:54:29;100874.08;;;4.20;65.47
41706;BME280;27385;51.096;17.190;2024-03-17T20:57:51;100870.15;;;4.19;65.55
41706;BME280;27385;51.096;17.190;2024-03-17T21:00:42;100869.98;;;4.15;65.47
41706;BME280;27385;51.096;17.190;2024-03-17T21:03:39;100868.30;;;4.11;65.49
41706;BME280;27385;51.096;17.190;2024-03-17T21:06:35;100868.73;;;4.09;65.59
41706;BME280;27385;51.096;17.190;2024-03-17T21:09:46;100863.44;;;4.09;65.64
41706;BME280;27385;51.096;17.190;2024-03-17T21:12:40;100864.00;;;4.09;65.87
41706;BME280;27385;51.096;17.190;2024-03-17T21:15:44;100859.11;;;4.08;65.76
41706;BME280;27385;51.096;17.190;2024-03-17T21:18:36;100860.10;;;4.05;65.67
41706;BME280;27385;51.096;17.190;2024-03-17T21:21:28;100857.90;;;4.05;65.73
41706;BME280;27385;51.096;17.190;2024-03-17T21:24:20;100856.27;;;4.03;65.81
41706;BME280;27385;51.096;17.190;2024-03-17T21:27:14;100850.11;;;3.98;65.87
41706;BME280;27385;51.096;17.190;2024-03-17T21:30:10;100845.65;;;3.96;65.83
41706;BME280;27385;51.096;17.190;2024-03-17T21:33:15;100842.55;;;3.97;65.79
41706;BME280;27385;51.096;17.190;2024-03-17T21:36:10;100847.80;;;3.95;65.90
41706;BME280;27385;51.096;17.190;2024-03-17T21:39:08;100845.05;;;3.95;65.78
41706;BME280;27385;51.096;17.190;2024-03-17T21:42:08;100847.69;;;3.92;65.78
41706;BME280;27385;51.096;17.190;2024-03-17T21:45:00;100845.21;;;3.90;65.99
41706;BME280;27385;51.096;17.190;2024-03-17T21:47:52;100845.00;;;3.88;66.16
41706;BME280;27385;51.096;17.190;2024-03-17T21:50:43;100843.48;;;3.88;66.38
41706;BME280;27385;51.096;17.190;2024-03-17T21:53:34;100845.04;;;3.85;66.10
41706;BME280;27385;51.096;17.190;2024-03-17T21:56:24;100843.80;;;3.79;66.04
41706;BME280;27385;51.096;17.190;2024-03-17T21:59:15;100844.77;;;3.77;66.38
41706;BME280;27385;51.096;17.190;2024-03-17T22:02:06;100849.23;;;3.74;66.42
41706;BME280;27385;51.096;17.190;2024-03-17T22:04:56;100845.66;;;3.71;66.34
41706;BME280;27385;51.096;17.190;2024-03-17T22:07:48;100849.94;;;3.69;66.83
41706;BME280;27385;51.096;17.190;2024-03-17T22:10:40;100845.95;;;3.62;66.98
41706;BME280;27385;51.096;17.190;2024-03-17T22:13:30;100847.29;;;3.57;66.97
41706;BME280;27385;51.096;17.190;2024-03-17T22:16:20;100847.95;;;3.55;66.87
41706;BME280;27385;51.096;17.190;2024-03-17T22:19:09;100850.08;;;3.55;67.04
41706;BME280;27385;51.096;17.190;2024-03-17T22:21:58;100846.19;;;3.51;66.89
41706;BME280;27385;51.096;17.190;2024-03-17T22:24:50;100850.06;;;3.51;67.02
41706;BME280;27385;51.096;17.190;2024-03-17T22:27:41;100845.23;;;3.52;67.09
41706;BME280;27385;51.096;17.190;2024-03-17T22:30:33;100845.17;;;3.56;67.22
41706;BME280;27385;51.096;17.190;2024-03-17T22:33:32;100842.73;;;3.55;66.96
41706;BME280;27385;51.096;17.190;2024-03-17T22:36:25;100844.19;;;3.53;67.09
41706;BME280;27385;51.096;17.190;2024-03-17T22:39:15;100842.17;;;3.52;67.26
41706;BME280;27385;51.096;17.190;2024-03-17T22:42:06;100844.65;;;3.49;67.28
41706;BME280;27385;51.096;17.190;2024-03-17T22:44:57;100844.96;;;3.49;67.48
41706;BME280;27385;51.096;17.190;2024-03-17T22:47:46;100838.43;;;3.48;67.80
41706;BME280;27385;51.096;17.190;2024-03-17T22:50:36;100841.06;;;3.46;67.65
41706;BME280;27385;51.096;17.190;2024-03-17T22:53:26;100844.58;;;3.43;67.79
41706;BME280;27385;51.096;17.190;2024-03-17T22:56:16;100840.58;;;3.37;68.02
41706;BME280;27385;51.096;17.190;2024-03-17T22:59:07;100842.59;;;3.34;68.01
41706;BME280;27385;51.096;17.190;2024-03-17T23:01:57;100843.30;;;3.33;68.27
41706;BME280;27385;51.096;17.190;2024-03-17T23:04:46;100838.23;;;3.34;68.42
41706;BME280;27385;51.096;17.190;2024-03-17T23:07:37;100831.69;;;3.34;68.36
41706;BME280;27385;51.096;17.190;2024-03-17T23:10:30;100836.30;;;3.36;68.47
41706;BME280;27385;51.096;17.190;2024-03-17T23:13:20;100831.59;;;3.36;68.44
41706;BME280;27385;51.096;17.190;2024-03-17T23:16:11;100836.22;;;3.38;68.61
41706;BME280;27385;51.096;17.190;2024-03-17T23:19:00;100837.06;;;3.39;68.61
41706;BME280;27385;51.096;17.190;2024-03-17T23:21:51;100838.04;;;3.37;68.76
41706;BME280;27385;51.096;17.190;2024-03-17T23:24:42;100833.55;;;3.37;69.05
41706;BME280;27385;51.096;17.190;2024-03-17T23:27:33;100828.09;;;3.32;68.80
41706;BME280;27385;51.096;17.190;2024-03-17T23:30:25;100824.66;;;3.28;68.76
41706;BME280;27385;51.096;17.190;2024-03-17T23:33:17;100828.85;;;3.28;68.68
41706;BME280;27385;51.096;17.190;2024-03-17T23:36:07;100828.39;;;3.26;68.35
41706;BME280;27385;51.096;17.190;2024-03-17T23:38:57;100827.63;;;3.26;68.14
41706;BME280;27385;51.096;17.190;2024-03-17T23:41:47;100823.95;;;3.24;68.06
41706;BME280;27385;51.096;17.190;2024-03-17T23:44:37;100825.45;;;3.23;67.92
41706;BME280;27385;51.096;17.190;2024-03-17T23:47:27;100824.52;;;3.18;67.59
41706;BME280;27385;51.096;17.190;2024-03-17T23:50:22;100819.80;;;3.16;67.67
41706;BME280;27385;51.096;17.190;2024-03-17T23:53:14;100817.52;;;3.16;67.72
41706;BME280;27385;51.096;17.190;2024-03-17T23:56:07;100814.79;;;3.13;67.68
41706;BME280;27385;51.096;17.190;2024-03-17T23:59:00;100812.14;;;3.11;67.75
